Time;durP1;ratioP1;P1;durP2;ratioP2;P2;SDS_P1;SDS_P2;PMS_P1;PMS_P2;Temp;Humidity;BMP_temperature;BMP_pressure;BME280_temperature;BME280_humidity;BME280_pressure;Samples;Min_cycle;Max_cycle;Signal;HPM_P1;HPM_P2
2021/11/21 00:02:04;;;;;;;171.32;34.38;;;6.40;99.90;;;;;;5053397;28;20925;-80
2021/11/21 00:04:30;;;;;;;84.88;29.65;;;6.40;99.90;;;;;;5052251;28;20028;-80
2021/11/21 00:06:56;;;;;;;132.57;29.42;;;6.20;99.90;;;;;;5049669;28;20067;-80
2021/11/21 00:09:22;;;;;;;74.95;28.20;;;6.50;99.90;;;;;;5055968;28;20049;-80
2021/11/21 00:11:48;;;;;;;71.72;30.33;;;6.30;99.90;;;;;;5053075;28;20033;-80
2021/11/21 00:14:14;;;;;;;109.40;28.65;;;6.20;99.90;;;;;;5054017;28;20021;-81
2021/11/21 00:16:40;;;;;;;67.63;30.85;;;6.20;99.90;;;;;;5053614;28;20159;-81
2021/11/21 00:19:06;;;;;;;58.25;28.40;;;6.50;99.90;;;;;;5051006;28;20552;-80
2021/11/21 00:21:32;;;;;;;108.55;28.42;;;6.80;99.90;;;;;;5053798;28;20108;-80
2021/11/21 00:23:58;;;;;;;87.93;26.17;;;6.40;99.90;;;;;;5054879;28;20031;-80
2021/11/21 00:26:23;;;;;;;64.55;26.88;;;6.20;99.90;;;;;;5053881;28;20024;-80
2021/11/21 00:28:50;;;;;;;65.78;24.42;;;6.10;99.90;;;;;;5053213;28;20528;-80
2021/11/21 00:31:17;;;;;;;187.60;30.75;;;6.10;99.90;;;;;;5051841;28;20083;-80
2021/11/21 00:33:43;;;;;;;73.00;26.27;;;6.10;99.90;;;;;;5051042;28;20079;-80
2021/11/21 00:36:09;;;;;;;79.55;28.55;;;6.50;99.90;;;;;;5055445;28;20029;-80
2021/11/21 00:38:35;;;;;;;110.30;29.35;;;6.10;99.90;;;;;;5053808;28;20028;-79
2021/11/21 00:41:01;;;;;;;69.65;29.88;;;6.00;99.90;;;;;;5053064;28;20037;-80
2021/11/21 00:43:26;;;;;;;106.78;30.77;;;6.00;99.90;;;;;;5051770;28;20032;-80
2021/11/21 00:45:52;;;;;;;90.18;30.27;;;5.80;99.90;;;;;;5049545;28;20551;-80
2021/11/21 00:48:22;;;;;;;89.50;29.83;;;6.30;99.90;;;;;;5055782;28;20033;-80
2021/11/21 00:50:57;;;;;;;72.40;30.27;;;5.80;99.90;;;;;;5051970;28;20037;-80
2021/11/21 00:53:23;;;;;;;71.85;29.52;;;5.60;99.90;;;;;;5054444;28;20556;-80
2021/11/21 00:55:54;;;;;;;80.45;29.83;;;5.50;99.90;;;;;;5053798;28;20107;-80
2021/11/21 00:58:20;;;;;;;59.45;28.15;;;5.30;99.90;;;;;;5052437;28;20017;-81
2021/11/21 01:00:49;;;;;;;61.58;27.80;;;5.60;99.90;;;;;;5050620;28;20029;-80
2021/11/21 01:03:18;;;;;;;80.30;28.00;;;5.30;99.90;;;;;;5055842;28;20040;-80
2021/11/21 01:05:45;;;;;;;72.13;28.50;;;5.30;99.90;;;;;;5053612;28;20041;-80
2021/11/21 01:08:12;;;;;;;59.20;26.27;;;5.20;99.90;;;;;;5053482;28;20039;-80
2021/11/21 01:10:40;;;;;;;69.47;26.90;;;5.00;99.90;;;;;;5053747;28;20019;-80
2021/11/21 01:13:06;;;;;;;63.20;27.80;;;4.90;99.90;;;;;;5050384;28;20112;-81
2021/11/21 01:15:33;;;;;;;71.35;27.00;;;4.90;99.90;;;;;;5054140;28;20422;-80
2021/11/21 01:17:59;;;;;;;76.18;27.33;;;4.80;99.90;;;;;;5054137;28;20029;-80
2021/11/21 01:20:28;;;;;;;68.57;25.33;;;4.80;99.90;;;;;;5052169;28;20029;-80
2021/11/21 01:22:54;;;;;;;51.70;25.55;;;4.70;99.90;;;;;;5051938;28;20456;-80
2021/11/21 01:25:21;;;;;;;67.07;27.20;;;4.50;99.90;;;;;;5052049;28;20055;-80
2021/11/21 01:27:47;;;;;;;53.50;25.40;;;4.30;99.90;;;;;;5050658;28;20029;-80
2021/11/21 01:30:16;;;;;;;47.42;25.25;;;4.40;99.90;;;;;;5053948;28;20021;-80
2021/11/21 01:32:42;;;;;;;58.03;25.75;;;4.40;99.90;;;;;;5053488;28;20120;-80
2021/11/21 01:35:09;;;;;;;61.95;25.02;;;4.70;99.90;;;;;;5053195;28;20485;-80
2021/11/21 01:37:35;;;;;;;49.08;25.13;;;4.40;99.90;;;;;;5053233;28;20039;-80
2021/11/21 01:40:01;;;;;;;47.08;26.55;;;4.30;99.90;;;;;;5051749;28;20022;-80
2021/11/21 01:42:28;;;;;;;38.70;24.02;;;4.50;99.90;;;;;;5058706;28;20562;-80
2021/11/21 01:44:55;;;;;;;37.22;23.42;;;4.70;99.90;;;;;;5054591;28;20055;-80
2021/11/21 01:47:22;;;;;;;33.08;22.38;;;4.70;99.90;;;;;;5056920;28;20028;-81
2021/11/21 01:49:55;;;;;;;31.92;23.45;;;4.60;99.90;;;;;;5057139;28;20473;-80
2021/11/21 01:52:22;;;;;;;33.20;22.52;;;4.70;99.90;;;;;;5056433;28;20510;-80
2021/11/21 01:54:54;;;;;;;33.47;22.65;;;4.60;99.90;;;;;;5053718;28;20025;-80
2021/11/21 01:57:27;;;;;;;35.35;22.67;;;4.50;99.90;;;;;;5058773;28;20116;-81
2021/11/21 02:00:03;;;;;;;34.22;22.95;;;4.40;99.90;;;;;;5055736;28;20033;-81
2021/11/21 02:02:34;;;;;;;33.83;21.92;;;4.40;99.90;;;;;;5055203;28;20049;-81
2021/11/21 02:05:00;;;;;;;33.58;22.40;;;4.40;99.90;;;;;;5056638;28;20041;-80
2021/11/21 02:07:30;;;;;;;35.05;23.48;;;4.40;99.90;;;;;;5054661;28;20055;-80
2021/11/21 02:10:03;;;;;;;35.45;23.02;;;5.00;99.90;;;;;;5036175;28;20021;-80
2021/11/21 02:12:34;;;;;;;36.53;22.70;;;4.50;99.90;;;;;;5065465;28;20033;-80
2021/11/21 02:15:00;;;;;;;35.08;23.85;;;4.50;99.90;;;;;;5057629;28;20355;-80
2021/11/21 02:17:27;;;;;;;31.08;20.92;;;4.60;99.90;;;;;;5056011;28;20086;-80
2021/11/21 02:19:58;;;;;;;34.53;22.30;;;5.00;99.90;;;;;;5057123;28;20108;-80
2021/11/21 02:22:24;;;;;;;31.45;20.80;;;4.90;99.90;;;;;;5056019;28;20040;-80
2021/11/21 02:24:50;;;;;;;32.20;20.88;;;5.30;99.90;;;;;;5053222;28;20612;-80
2021/11/21 02:27:23;;;;;;;34.45;21.40;;;5.20;99.90;;;;;;5058509;28;20032;-80
2021/11/21 02:29:53;;;;;;;35.88;21.77;;;5.20;99.90;;;;;;5056289;28;20021;-80
2021/11/21 02:32:19;;;;;;;36.72;20.85;;;5.50;99.90;;;;;;5055918;28;20037;-80
2021/11/21 02:34:47;;;;;;;48.67;19.98;;;5.60;99.90;;;;;;5056641;28;20023;-81
2021/11/21 02:37:16;;;;;;;33.95;19.42;;;5.20;99.90;;;;;;5052684;28;20060;-81
2021/11/21 02:39:42;;;;;;;95.68;20.70;;;5.20;99.90;;;;;;5054395;28;20508;-81
2021/11/21 02:42:23;;;;;;;53.40;20.33;;;5.80;99.90;;;;;;5055340;28;20026;-81
2021/11/21 02:44:48;;;;;;;56.33;20.85;;;5.10;99.90;;;;;;5056119;28;20065;-80
2021/11/21 02:47:14;;;;;;;136.73;22.27;;;5.40;99.90;;;;;;5054136;28;20068;-80
2021/11/21 02:49:39;;;;;;;162.98;24.80;;;5.10;99.90;;;;;;5055794;28;20040;-80
2021/11/21 02:52:06;;;;;;;83.57;22.02;;;5.10;99.90;;;;;;5052570;28;20029;-80
2021/11/21 02:54:35;;;;;;;41.28;21.02;;;5.20;99.90;;;;;;5056480;28;20070;-80
2021/11/21 02:57:00;;;;;;;79.70;21.45;;;5.20;99.90;;;;;;5054219;28;20017;-80
2021/11/21 02:59:27;;;;;;;46.25;20.95;;;5.30;99.90;;;;;;5043811;28;20132;-80
2021/11/21 03:01:53;;;;;;;61.42;19.77;;;5.40;99.90;;;;;;5045872;28;20417;-80
2021/11/21 03:04:23;;;;;;;41.45;20.42;;;5.30;99.90;;;;;;5053806;28;20060;-80
2021/11/21 03:06:49;;;;;;;42.35;19.60;;;5.70;99.90;;;;;;5052068;28;20445;-80
2021/11/21 03:09:22;;;;;;;42.33;19.80;;;5.80;99.90;;;;;;5057818;28;20025;-81
2021/11/21 03:11:52;;;;;;;39.28;19.25;;;5.40;99.90;;;;;;5055661;28;20032;-80
2021/11/21 03:14:19;;;;;;;99.80;21.92;;;5.40;99.90;;;;;;5055194;28;20031;-80
2021/11/21 03:16:48;;;;;;;34.53;20.27;;;5.30;99.90;;;;;;5053330;28;20028;-80
2021/11/21 03:19:14;;;;;;;43.83;21.40;;;5.30;99.90;;;;;;5051535;28;20029;-80
2021/11/21 03:21:40;;;;;;;126.38;22.50;;;5.30;99.90;;;;;;5053862;28;20421;-80
2021/11/21 03:24:06;;;;;;;52.08;21.02;;;5.30;99.90;;;;;;5056877;28;20051;-79
2021/11/21 03:26:32;;;;;;;40.20;21.63;;;5.30;99.90;;;;;;5055188;28;20025;-80
2021/11/21 03:28:58;;;;;;;47.60;23.08;;;5.70;99.90;;;;;;5055051;28;20029;-80
2021/11/21 03:31:24;;;;;;;56.42;23.77;;;5.30;99.90;;;;;;5053906;28;20396;-80
2021/11/21 03:33:49;;;;;;;234.93;25.45;;;5.80;99.90;;;;;;5049700;28;20482;-80
2021/11/21 03:36:15;;;;;;;53.25;22.88;;;5.30;99.90;;;;;;5057115;28;20032;-80
2021/11/21 03:38:41;;;;;;;55.60;24.00;;;5.50;99.90;;;;;;5054992;28;20025;-80
2021/11/21 03:41:06;;;;;;;103.18;23.55;;;5.70;99.90;;;;;;5054645;28;20366;-80
2021/11/21 03:43:32;;;;;;;49.47;20.85;;;5.40;99.90;;;;;;5054865;28;20393;-80
2021/11/21 03:45:58;;;;;;;56.00;19.92;;;5.70;99.90;;;;;;5050171;28;20025;-80
2021/11/21 03:48:23;;;;;;;112.03;22.77;;;5.20;99.90;;;;;;5056907;28;20033;-80
2021/11/21 03:50:49;;;;;;;76.80;22.38;;;5.50;99.90;;;;;;5044732;28;20053;-80
2021/11/21 03:53:17;;;;;;;64.68;21.92;;;5.60;99.90;;;;;;5054505;28;20393;-81
2021/11/21 03:55:42;;;;;;;103.18;23.13;;;5.20;99.90;;;;;;5053116;28;20028;-80
2021/11/21 03:58:08;;;;;;;83.63;22.45;;;5.20;99.90;;;;;;5050098;28;20486;-80
2021/11/21 04:00:34;;;;;;;90.93;21.25;;;5.10;99.90;;;;;;5054037;28;20025;-81
2021/11/21 04:03:00;;;;;;;46.70;21.70;;;5.00;99.90;;;;;;5054687;28;20540;-80
2021/11/21 04:05:26;;;;;;;85.57;23.10;;;5.50;99.90;;;;;;5055196;28;20040;-80
2021/11/21 04:07:52;;;;;;;96.10;22.40;;;5.20;99.90;;;;;;5074642;28;20029;-80
2021/11/21 04:10:18;;;;;;;291.38;27.85;;;5.10;99.90;;;;;;5072336;28;20032;-80
2021/11/21 04:12:44;;;;;;;65.68;22.65;;;4.90;99.90;;;;;;5072175;28;20031;-80
2021/11/21 04:15:10;;;;;;;71.35;23.70;;;5.00;99.90;;;;;;5076037;28;20021;-80
2021/11/21 04:17:37;;;;;;;101.25;24.80;;;5.20;99.90;;;;;;5074112;28;20042;-80
2021/11/21 04:20:04;;;;;;;135.13;25.33;;;4.90;99.90;;;;;;5074016;28;20021;-80
2021/11/21 04:22:30;;;;;;;73.85;25.13;;;5.00;99.90;;;;;;5073990;28;20055;-80
2021/11/21 04:24:57;;;;;;;63.10;24.85;;;5.10;99.90;;;;;;5069853;28;20485;-80
2021/11/21 04:27:26;;;;;;;83.88;24.58;;;5.00;99.90;;;;;;5075566;28;20021;-80
2021/11/21 04:29:53;;;;;;;93.82;25.13;;;5.00;99.90;;;;;;5074235;28;20035;-80
2021/11/21 04:32:19;;;;;;;148.20;25.40;;;4.90;99.90;;;;;;5074204;28;20017;-80
2021/11/21 04:34:44;;;;;;;105.35;24.23;;;5.00;99.90;;;;;;5072460;28;20369;-80
2021/11/21 04:37:10;;;;;;;177.45;26.10;;;4.90;99.90;;;;;;5071434;28;20021;-80
2021/11/21 04:39:35;;;;;;;96.03;24.27;;;4.90;99.90;;;;;;5073853;28;20036;-80
2021/11/21 04:42:01;;;;;;;316.48;31.60;;;5.10;99.90;;;;;;5074525;28;20029;-80
2021/11/21 04:44:27;;;;;;;129.65;25.25;;;4.80;99.90;;;;;;5072916;28;20435;-80
2021/11/21 04:46:52;;;;;;;89.10;23.20;;;4.70;99.90;;;;;;5074039;28;20489;-80
2021/11/21 04:49:18;;;;;;;74.80;24.27;;;4.80;99.90;;;;;;5072265;28;20894;-81
2021/11/21 04:51:44;;;;;;;98.43;23.92;;;4.70;99.90;;;;;;5071172;28;20029;-80
2021/11/21 04:54:14;;;;;;;64.65;23.27;;;4.10;99.90;;;;;;5076313;28;20025;-80
2021/11/21 04:56:40;;;;;;;125.70;22.88;;;4.50;99.90;;;;;;5073216;28;20024;-81
2021/11/21 04:59:06;;;;;;;72.40;24.13;;;4.60;99.90;;;;;;5073719;28;20538;-80
2021/11/21 05:01:32;;;;;;;73.80;22.80;;;5.10;99.90;;;;;;5073718;28;20036;-80
2021/11/21 05:03:57;;;;;;;67.38;21.70;;;4.90;99.90;;;;;;5068884;28;20065;-80
2021/11/21 05:06:23;;;;;;;53.17;21.55;;;4.40;99.90;;;;;;5055757;28;20371;-80
2021/11/21 05:08:48;;;;;;;59.38;20.42;;;5.20;99.90;;;;;;5053677;28;20037;-81
2021/11/21 05:11:14;;;;;;;44.55;21.85;;;4.70;99.90;;;;;;5053208;28;20017;-80
2021/11/21 05:13:40;;;;;;;70.40;21.77;;;4.80;99.90;;;;;;5053468;28;20465;-80
2021/11/21 05:16:05;;;;;;;42.40;21.52;;;4.80;99.90;;;;;;5052802;28;20052;-80
2021/11/21 05:18:31;;;;;;;47.08;21.60;;;5.10;99.90;;;;;;5057872;28;20021;-80
2021/11/21 05:20:56;;;;;;;55.28;22.25;;;4.90;99.90;;;;;;5047887;28;20029;-80
2021/11/21 05:23:22;;;;;;;60.72;19.52;;;5.10;99.90;;;;;;5057447;28;20095;-80
2021/11/21 05:25:48;;;;;;;60.80;19.58;;;4.90;99.90;;;;;;5057011;28;20074;-80
2021/11/21 05:28:13;;;;;;;47.58;18.70;;;4.60;99.90;;;;;;5055401;28;20041;-80
2021/11/21 05:30:40;;;;;;;77.20;19.70;;;4.60;99.90;;;;;;5055567;28;20029;-80
2021/11/21 05:33:06;;;;;;;51.92;16.70;;;4.20;99.90;;;;;;5059112;28;20032;-80
2021/11/21 05:35:32;;;;;;;47.30;16.88;;;4.10;99.90;;;;;;5057668;28;20032;-80
2021/11/21 05:37:57;;;;;;;33.65;16.27;;;4.10;99.90;;;;;;5056527;28;20036;-80
2021/11/21 05:40:23;;;;;;;41.38;16.55;;;4.40;99.90;;;;;;5056009;28;20529;-80
2021/11/21 05:42:49;;;;;;;30.27;16.40;;;4.10;99.90;;;;;;5053300;28;20037;-80
2021/11/21 05:45:15;;;;;;;35.67;16.92;;;4.30;99.90;;;;;;5058939;28;20044;-80
2021/11/21 05:47:41;;;;;;;34.95;16.08;;;4.20;99.90;;;;;;5057376;28;20111;-80
2021/11/21 05:50:12;;;;;;;34.10;15.95;;;4.20;99.90;;;;;;5056643;28;20021;-80
2021/11/21 05:52:38;;;;;;;35.78;16.45;;;4.20;99.90;;;;;;5055714;28;20028;-80
2021/11/21 05:55:04;;;;;;;33.47;15.90;;;4.30;99.90;;;;;;5051458;28;20049;-80
2021/11/21 05:57:30;;;;;;;32.10;15.75;;;4.30;99.90;;;;;;5057517;28;20064;-80
2021/11/21 05:59:56;;;;;;;30.00;16.80;;;4.70;99.90;;;;;;5054740;28;20024;-80
2021/11/21 06:02:21;;;;;;;58.80;17.45;;;4.70;99.90;;;;;;5055171;28;20068;-80
2021/11/21 06:04:47;;;;;;;32.42;16.85;;;4.10;99.90;;;;;;5056197;28;20052;-81
2021/11/21 06:07:12;;;;;;;33.05;16.98;;;4.00;99.90;;;;;;5054435;28;20398;-80
2021/11/21 06:09:38;;;;;;;42.38;17.10;;;4.70;99.90;;;;;;5054886;28;20571;-80
2021/11/21 06:12:04;;;;;;;38.05;16.92;;;4.30;99.90;;;;;;5057832;28;20032;-80
2021/11/21 06:14:31;;;;;;;41.50;16.45;;;4.00;99.90;;;;;;5056548;28;20056;-80
2021/11/21 06:16:57;;;;;;;37.92;16.15;;;3.90;99.90;;;;;;5056190;28;20013;-80
2021/11/21 06:19:22;;;;;;;38.38;16.70;;;3.80;99.90;;;;;;5055582;28;20037;-80
2021/11/21 06:21:48;;;;;;;27.95;17.23;;;4.20;99.90;;;;;;5052637;28;20088;-80
2021/11/21 06:24:14;;;;;;;36.85;17.20;;;4.40;99.90;;;;;;5057997;28;20037;-80
2021/11/21 06:26:42;;;;;;;44.75;17.55;;;3.70;99.90;;;;;;5055267;28;20029;-79
2021/11/21 06:29:08;;;;;;;29.83;16.10;;;4.00;99.90;;;;;;5056520;28;20085;-80
2021/11/21 06:31:33;;;;;;;32.33;16.45;;;3.80;99.90;;;;;;5054959;28;20440;-80
2021/11/21 06:33:59;;;;;;;64.70;17.95;;;3.70;99.90;;;;;;5050182;28;20025;-80
2021/11/21 06:36:25;;;;;;;30.33;16.30;;;3.50;99.90;;;;;;5057941;28;20028;-80
2021/11/21 06:38:50;;;;;;;30.58;15.68;;;3.70;99.90;;;;;;5055581;28;20425;-80
2021/11/21 06:41:18;;;;;;;34.05;17.08;;;3.80;99.90;;;;;;5054781;28;20513;-80
2021/11/21 06:43:46;;;;;;;35.00;16.75;;;3.80;99.90;;;;;;5056481;28;20054;-80
2021/11/21 06:46:14;;;;;;;33.30;16.88;;;3.80;99.90;;;;;;5053284;28;20477;-80
2021/11/21 06:48:40;;;;;;;29.60;17.38;;;4.00;99.90;;;;;;5054001;28;20074;-80
2021/11/21 06:51:07;;;;;;;41.60;16.85;;;4.00;99.90;;;;;;5057301;28;20017;-80
2021/11/21 06:53:33;;;;;;;34.70;16.85;;;3.90;99.90;;;;;;5055656;28;20036;-80
2021/11/21 06:55:58;;;;;;;29.90;17.02;;;4.30;99.90;;;;;;5055350;28;20025;-80
2021/11/21 06:58:27;;;;;;;24.92;16.58;;;4.40;99.90;;;;;;5054998;28;20032;-80
2021/11/21 07:00:53;;;;;;;27.15;16.90;;;4.00;99.90;;;;;;5051995;28;20028;-80
2021/11/21 07:03:18;;;;;;;25.08;15.98;;;4.40;99.90;;;;;;5057276;28;20037;-80
2021/11/21 07:05:45;;;;;;;28.23;16.08;;;3.90;99.90;;;;;;5055424;28;20090;-80
2021/11/21 07:08:11;;;;;;;30.30;15.48;;;3.90;99.90;;;;;;5055375;28;20091;-80
2021/11/21 07:10:37;;;;;;;32.60;17.52;;;4.20;99.90;;;;;;5053489;28;20491;-80
2021/11/21 07:13:04;;;;;;;30.00;16.50;;;3.90;99.90;;;;;;5049792;28;20036;-80
2021/11/21 07:15:31;;;;;;;27.33;16.45;;;4.40;99.90;;;;;;5055539;28;20025;-79
2021/11/21 07:17:56;;;;;;;34.67;16.30;;;4.20;99.90;;;;;;5052782;28;20544;-83
2021/11/21 07:20:22;;;;;;;33.65;15.90;;;4.50;99.90;;;;;;5054643;28;20147;-83
2021/11/21 07:22:51;;;;;;;36.50;17.35;;;4.60;99.90;;;;;;5057039;28;20032;-84
2021/11/21 07:25:19;;;;;;;25.17;16.23;;;4.30;99.90;;;;;;5047401;28;20088;-84
2021/11/21 07:27:45;;;;;;;28.88;15.90;;;4.20;99.90;;;;;;5053006;28;20025;-82
2021/11/21 07:30:16;;;;;;;25.50;16.30;;;4.10;99.90;;;;;;5055525;28;20033;-83
2021/11/21 07:32:43;;;;;;;27.52;16.73;;;4.70;99.90;;;;;;5064766;28;20035;-82
2021/11/21 07:35:09;;;;;;;29.92;17.63;;;4.20;99.90;;;;;;5044223;28;20025;-81
2021/11/21 07:37:35;;;;;;;27.23;16.65;;;4.40;99.90;;;;;;5054518;28;20082;-81
2021/11/21 07:40:05;;;;;;;24.73;16.30;;;4.40;99.90;;;;;;5051497;28;20025;-81
2021/11/21 07:42:31;;;;;;;23.83;16.00;;;4.50;99.90;;;;;;5055268;28;20029;-81
2021/11/21 07:44:56;;;;;;;25.45;16.15;;;4.50;99.90;;;;;;5052623;28;20436;-83
2021/11/21 07:47:22;;;;;;;60.67;18.63;;;4.70;99.90;;;;;;5045867;28;20384;-80
2021/11/21 07:49:48;;;;;;;29.17;16.98;;;4.50;99.90;;;;;;5053458;28;20437;-80
2021/11/21 07:52:13;;;;;;;28.77;16.38;;;4.60;99.90;;;;;;5050489;28;20045;-82
2021/11/21 07:54:40;;;;;;;35.20;17.80;;;4.70;99.90;;;;;;5053059;28;20032;-80
2021/11/21 07:57:06;;;;;;;32.85;19.20;;;4.40;99.90;;;;;;5056032;28;20036;-79
2021/11/21 07:59:32;;;;;;;28.08;16.77;;;4.50;99.90;;;;;;5054244;28;20033;-81
2021/11/21 08:01:57;;;;;;;34.53;18.60;;;5.10;99.90;;;;;;5054338;28;20028;-80
2021/11/21 08:04:23;;;;;;;29.70;18.35;;;4.70;99.90;;;;;;5052797;28;20052;-81
2021/11/21 08:06:49;;;;;;;39.47;18.55;;;4.80;99.90;;;;;;5050361;28;20033;-81
2021/11/21 08:09:14;;;;;;;30.88;18.08;;;4.40;99.90;;;;;;5056234;28;20075;-80
2021/11/21 08:11:40;;;;;;;148.57;60.83;;;4.50;99.90;;;;;;5054423;28;20507;-81
2021/11/21 08:14:06;;;;;;;81.68;21.58;;;4.70;99.90;;;;;;5053840;28;20025;-80
2021/11/21 08:16:33;;;;;;;35.33;19.02;;;5.00;99.90;;;;;;5054200;28;20111;-81
2021/11/21 08:18:58;;;;;;;73.00;20.25;;;4.70;99.90;;;;;;5050019;28;20036;-81
2021/11/21 08:21:24;;;;;;;39.47;18.80;;;4.70;99.90;;;;;;5066980;28;20024;-80
2021/11/21 08:23:50;;;;;;;25.63;17.88;;;4.50;99.90;;;;;;5054540;28;20055;-81
2021/11/21 08:26:15;;;;;;;25.08;18.00;;;4.70;99.90;;;;;;5053799;28;20170;-80
2021/11/21 08:28:41;;;;;;;28.05;18.88;;;5.00;99.90;;;;;;5052694;28;20056;-80
2021/11/21 08:31:07;;;;;;;29.83;18.92;;;5.00;99.90;;;;;;5049851;28;20032;-81
2021/11/21 08:33:33;;;;;;;44.38;17.45;;;5.00;99.90;;;;;;5053877;28;20374;-81
2021/11/21 08:35:59;;;;;;;63.58;21.40;;;5.00;99.90;;;;;;5054215;28;20055;-81
2021/11/21 08:38:24;;;;;;;67.10;19.40;;;5.00;99.90;;;;;;5053736;28;20037;-81
2021/11/21 08:40:50;;;;;;;45.45;29.73;;;5.00;99.90;;;;;;5053931;28;20255;-81
2021/11/21 08:43:16;;;;;;;47.22;27.92;;;5.20;99.90;;;;;;5052082;28;20056;-81
2021/11/21 08:45:41;;;;;;;42.97;28.83;;;5.30;99.90;;;;;;5052375;28;20100;-82
2021/11/21 08:48:07;;;;;;;56.40;16.83;;;5.40;99.90;;;;;;5054710;28;20547;-80
2021/11/21 08:50:33;;;;;;;28.73;17.60;;;5.70;99.90;;;;;;5060487;28;20032;-81
2021/11/21 08:52:59;;;;;;;39.15;19.15;;;5.60;99.90;;;;;;5060834;28;20401;-81
2021/11/21 08:55:26;;;;;;;92.95;19.83;;;5.40;99.90;;;;;;5059694;28;20021;-80
2021/11/21 08:57:52;;;;;;;48.28;22.80;;;5.30;99.90;;;;;;5056750;28;20044;-81
2021/11/21 09:00:18;;;;;;;63.70;19.58;;;5.90;99.90;;;;;;5055727;28;20029;-81
2021/11/21 09:02:44;;;;;;;73.25;23.38;;;5.40;99.90;;;;;;5060281;28;20044;-79
2021/11/21 09:05:10;;;;;;;40.03;22.92;;;5.50;99.90;;;;;;5060299;28;20033;-80
2021/11/21 09:07:42;;;;;;;50.45;26.50;;;5.40;99.90;;;;;;5058997;28;20034;-80
2021/11/21 09:10:12;;;;;;;42.10;24.80;;;5.80;99.90;;;;;;5055979;28;20024;-80
2021/11/21 09:12:38;;;;;;;34.08;20.88;;;5.60;99.90;;;;;;5059426;28;20033;-82
2021/11/21 09:15:04;;;;;;;29.08;18.52;;;5.80;99.90;;;;;;5074816;28;20021;-84
2021/11/21 09:17:30;;;;;;;31.00;19.30;;;5.60;99.90;;;;;;5061888;28;20490;-84
2021/11/21 09:19:56;;;;;;;28.15;18.90;;;5.50;99.90;;;;;;5060394;28;20029;-82
2021/11/21 09:22:21;;;;;;;29.75;19.02;;;5.60;99.90;;;;;;5054497;28;20043;-84
2021/11/21 09:24:47;;;;;;;28.70;20.08;;;6.20;99.90;;;;;;5057193;28;20104;-83
2021/11/21 09:27:15;;;;;;;28.23;18.63;;;6.30;99.90;;;;;;5062364;28;20045;-84
2021/11/21 09:29:42;;;;;;;30.17;18.85;;;5.90;99.90;;;;;;5048532;28;20028;-84
2021/11/21 09:32:10;;;;;;;29.13;19.23;;;6.00;99.90;;;;;;5058708;28;20025;-85
2021/11/21 09:34:35;;;;;;;31.55;19.48;;;6.50;99.90;;;;;;5060268;28;20450;-83
2021/11/21 09:37:01;;;;;;;28.27;18.77;;;6.30;99.90;;;;;;5055252;28;20025;-85
2021/11/21 09:39:27;;;;;;;143.30;80.95;;;6.10;99.90;;;;;;5061483;28;20485;-85
2021/11/21 09:41:53;;;;;;;38.55;25.92;;;6.40;99.90;;;;;;5054121;28;20021;-83
2021/11/21 09:44:19;;;;;;;30.75;21.48;;;6.90;99.90;;;;;;5067143;28;20036;-86
2021/11/21 09:46:45;;;;;;;28.15;19.27;;;6.50;99.90;;;;;;5067539;28;20542;-82
2021/11/21 09:49:12;;;;;;;29.65;19.75;;;6.50;99.90;;;;;;5055763;28;20033;-85
2021/11/21 09:51:38;;;;;;;24.90;18.52;;;6.60;99.90;;;;;;5058950;28;20756;-80
2021/11/21 09:54:03;;;;;;;26.35;18.30;;;6.30;99.90;;;;;;5052498;28;20040;-81
2021/11/21 09:56:30;;;;;;;30.10;20.70;;;6.60;99.90;;;;;;5060060;28;20029;-81
2021/11/21 09:58:55;;;;;;;29.70;19.55;;;6.20;99.90;;;;;;5060142;28;20519;-81
2021/11/21 10:01:34;;;;;;;29.67;19.50;;;6.70;99.90;;;;;;5053792;28;20055;-82
2021/11/21 10:04:01;;;;;;;29.48;20.58;;;6.10;99.90;;;;;;5036582;28;20494;-81
2021/11/21 10:06:36;;;;;;;30.25;20.55;;;6.20;99.90;;;;;;5058805;28;20035;-81
2021/11/21 10:09:03;;;;;;;32.08;21.85;;;6.00;99.90;;;;;;5055442;28;20401;-80
2021/11/21 10:11:29;;;;;;;48.38;30.45;;;6.10;99.90;;;;;;5056759;28;20025;-81
2021/11/21 10:14:03;;;;;;;34.85;21.83;;;6.20;99.90;;;;;;5056400;28;20025;-81
2021/11/21 10:16:31;;;;;;;35.28;23.00;;;6.60;99.90;;;;;;5056130;28;20032;-82
2021/11/21 10:19:00;;;;;;;72.25;39.88;;;6.10;99.90;;;;;;5036041;28;20014;-79
2021/11/21 10:21:32;;;;;;;100.70;49.63;;;6.10;99.90;;;;;;5065340;28;20028;-81
2021/11/21 10:24:14;;;;;;;100.72;49.97;;;6.20;99.90;;;;;;5054229;28;20116;-81
2021/11/21 10:26:41;;;;;;;37.53;22.63;;;6.30;99.90;;;;;;5054858;28;20379;-81
2021/11/21 10:29:27;;;;;;;56.72;32.00;;;6.50;99.90;;;;;;5054441;28;20067;-80
2021/11/21 10:31:53;;;;;;;29.55;20.08;;;6.40;99.90;;;;;;5056127;28;20021;-81
2021/11/21 10:34:19;;;;;;;30.67;20.80;;;6.40;99.90;;;;;;5054443;28;20021;-81
2021/11/21 10:36:44;;;;;;;32.00;20.23;;;6.20;99.90;;;;;;5053518;28;20390;-82
2021/11/21 10:39:10;;;;;;;31.83;21.00;;;6.60;99.90;;;;;;5057917;28;20028;-81
2021/11/21 10:41:41;;;;;;;28.55;19.25;;;6.00;99.90;;;;;;5055883;28;20033;-81
2021/11/21 10:44:10;;;;;;;34.67;22.45;;;6.00;99.90;;;;;;5052234;28;20040;-81
2021/11/21 10:46:43;;;;;;;27.10;18.67;;;6.00;99.90;;;;;;5055040;28;20111;-82
2021/11/21 10:49:15;;;;;;;37.05;23.75;;;6.00;99.90;;;;;;5053120;28;20021;-82
2021/11/21 10:51:40;;;;;;;28.35;19.05;;;6.10;99.90;;;;;;5054529;28;20029;-82
2021/11/21 10:54:29;;;;;;;30.40;19.98;;;6.00;99.90;;;;;;5057179;28;20020;-81
2021/11/21 10:56:57;;;;;;;53.63;30.45;;;6.00;99.90;;;;;;5055720;28;20044;-82
2021/11/21 10:59:38;;;;;;;28.83;18.65;;;6.00;99.90;;;;;;5055153;28;20033;-82
2021/11/21 11:02:13;;;;;;;25.27;17.77;;;6.20;99.90;;;;;;5055476;28;20119;-82
2021/11/21 11:04:57;;;;;;;23.25;16.65;;;6.10;99.90;;;;;;5054451;28;20044;-83
2021/11/21 11:07:23;;;;;;;28.40;18.88;;;6.70;99.90;;;;;;5050089;28;20032;-84
2021/11/21 11:09:51;;;;;;;23.75;15.70;;;6.70;99.90;;;;;;5052118;28;20386;-84
2021/11/21 11:12:17;;;;;;;22.15;15.95;;;6.90;99.90;;;;;;5056825;28;20103;-84
2021/11/21 11:14:43;;;;;;;21.77;15.15;;;6.60;99.90;;;;;;5055320;28;20049;-84
2021/11/21 11:17:09;;;;;;;22.35;15.43;;;6.70;99.90;;;;;;5055252;28;20521;-84
2021/11/21 11:19:35;;;;;;;20.63;13.93;;;6.70;99.90;;;;;;5055100;28;20020;-84
2021/11/21 11:22:02;;;;;;;20.05;14.43;;;6.80;99.90;;;;;;5051225;28;20030;-84
2021/11/21 11:24:28;;;;;;;21.48;15.05;;;7.00;99.90;;;;;;5056780;28;20199;-83
2021/11/21 11:27:01;;;;;;;27.70;18.45;;;7.20;99.90;;;;;;5054766;28;20037;-83
2021/11/21 11:29:35;;;;;;;36.60;24.88;;;7.90;99.90;;;;;;5054524;28;20432;-84
2021/11/21 11:32:28;;;;;;;24.08;16.33;;;8.00;99.90;;;;;;5054883;28;20028;-84
2021/11/21 11:34:55;;;;;;;21.35;14.60;;;7.80;99.90;;;;;;5054782;28;20029;-84
2021/11/21 11:37:35;;;;;;;24.13;15.00;;;7.60;99.90;;;;;;5053277;28;20471;-83
2021/11/21 11:40:01;;;;;;;21.98;15.05;;;7.60;99.90;;;;;;5033263;28;20036;-83
2021/11/21 11:42:40;;;;;;;22.90;15.48;;;8.30;99.90;;;;;;5055996;28;20040;-84
2021/11/21 11:45:10;;;;;;;48.47;29.17;;;7.90;99.90;;;;;;5053939;28;20477;-85
2021/11/21 11:47:40;;;;;;;35.92;22.33;;;7.90;99.90;;;;;;5053203;28;20045;-86
2021/11/21 11:50:09;;;;;;;32.90;21.92;;;7.90;99.90;;;;;;5054409;28;20036;-85
2021/11/21 11:52:57;;;;;;;27.13;17.30;;;7.70;99.90;;;;;;5054689;28;20036;-86
2021/11/21 11:55:27;;;;;;;25.70;16.58;;;8.20;99.90;;;;;;5053102;28;20488;-85
2021/11/21 11:57:54;;;;;;;27.23;18.17;;;7.70;99.90;;;;;;5050441;28;20393;-85
2021/11/21 12:00:29;;;;;;;37.72;20.85;;;7.90;99.90;;;;;;5056742;28;20017;-85
2021/11/21 12:02:58;;;;;;;31.77;17.98;;;7.70;99.90;;;;;;5052691;28;20570;-85
2021/11/21 12:05:32;;;;;;;30.55;18.88;;;8.00;99.90;;;;;;5054069;28;20068;-82
2021/11/21 12:08:16;;;;;;;45.83;26.38;;;7.80;99.90;;;;;;5056946;28;20028;-88
2021/11/21 12:10:48;;;;;;;33.03;20.08;;;8.10;99.90;;;;;;5047243;28;20017;-90
2021/11/21 12:13:30;;;;;;;35.85;19.90;;;7.50;99.90;;;;;;5051444;28;20557;-84
2021/11/21 12:15:59;;;;;;;84.65;43.67;;;7.40;99.90;;;;;;5050369;28;20829;-85
2021/11/21 12:18:57;;;;;;;59.67;33.67;;;7.40;99.90;;;;;;5056144;28;20607;-83
2021/11/21 12:21:58;;;;;;;65.45;35.78;;;7.20;99.90;;;;;;5050548;28;20040;-82
2021/11/21 12:24:27;;;;;;;33.60;18.15;;;7.70;99.90;;;;;;4989114;28;20042;-82
2021/11/21 12:26:54;;;;;;;35.60;19.35;;;7.50;99.90;;;;;;4982326;28;20136;-81
2021/11/21 12:29:23;;;;;;;30.35;18.50;;;7.60;99.90;;;;;;4983873;28;20034;-81
2021/11/21 12:31:50;;;;;;;30.20;18.63;;;7.70;99.90;;;;;;4983681;28;20018;-83
2021/11/21 12:34:36;;;;;;;149.02;62.58;;;7.80;99.90;;;;;;4972676;28;20061;-81
2021/11/21 12:37:15;;;;;;;30.45;19.40;;;7.90;99.90;;;;;;4953885;28;20024;-85
2021/11/21 12:39:44;;;;;;;29.55;18.10;;;7.90;99.90;;;;;;4987299;28;20034;-93